Time;durP1;ratioP1;P1;durP2;ratioP2;P2;SDS_P1;SDS_P2;PMS_P1;PMS_P2;Temp;Humidity;BMP_temperature;BMP_pressure;BME280_temperature;BME280_humidity;BME280_pressure;Samples;Min_cycle;Max_cycle;Signal;HPM_P1;HPM_P2
2023/05/07 00:00:38;;;;;;;7.50;6.68;;;19.10;87.80;;;;;;6308733;22;20052;-79
2023/05/07 00:03:04;;;;;;;9.20;6.88;;;19.20;88.00;;;;;;6308371;22;20003;-80
2023/05/07 00:05:30;;;;;;;10.65;6.57;;;19.20;88.00;;;;;;6309127;22;19999;-79
2023/05/07 00:07:55;;;;;;;9.23;7.05;;;19.20;88.00;;;;;;6308656;22;20095;-77
2023/05/07 00:10:21;;;;;;;8.80;7.07;;;19.20;88.20;;;;;;6308090;22;20023;-79
2023/05/07 00:12:47;;;;;;;8.60;6.53;;;19.10;88.30;;;;;;6308052;22;20013;-78
2023/05/07 00:15:12;;;;;;;9.90;7.10;;;19.10;88.30;;;;;;6308707;22;20026;-80
2023/05/07 00:17:38;;;;;;;9.98;6.88;;;19.00;88.40;;;;;;6308498;22;20444;-81
2023/05/07 00:20:05;;;;;;;9.93;7.15;;;19.00;88.40;;;;;;6308840;22;20438;-78
2023/05/07 00:22:32;;;;;;;8.73;6.82;;;19.00;88.50;;;;;;6315620;22;20019;-79
2023/05/07 00:24:58;;;;;;;9.00;6.95;;;19.00;88.60;;;;;;6324579;22;20275;-78
2023/05/07 00:27:25;;;;;;;8.80;7.50;;;19.00;88.90;;;;;;6282388;22;20005;-79
2023/05/07 00:29:51;;;;;;;11.77;7.40;;;18.90;88.80;;;;;;6282859;22;20019;-79
2023/05/07 00:32:16;;;;;;;9.43;7.15;;;18.90;89.20;;;;;;6309113;22;20420;-78
2023/05/07 00:34:43;;;;;;;10.15;7.53;;;18.90;89.30;;;;;;6309410;22;20332;-79
2023/05/07 00:37:09;;;;;;;9.20;7.00;;;18.90;89.50;;;;;;6308435;22;20105;-79
2023/05/07 00:39:35;;;;;;;8.73;7.25;;;18.90;89.50;;;;;;6308661;22;20003;-79
2023/05/07 00:42:01;;;;;;;9.00;6.90;;;18.90;89.20;;;;;;6307104;22;20666;-78
2023/05/07 00:44:28;;;;;;;8.45;7.07;;;18.90;89.40;;;;;;6307524;22;20027;-79
2023/05/07 00:46:54;;;;;;;11.00;7.35;;;18.90;89.50;;;;;;6307785;22;20003;-79
2023/05/07 00:49:20;;;;;;;9.25;7.50;;;18.90;89.60;;;;;;6307408;22;20008;-79
2023/05/07 00:51:46;;;;;;;10.15;6.70;;;18.90;89.80;;;;;;6307322;22;20473;-79
2023/05/07 00:54:13;;;;;;;7.65;6.30;;;18.90;89.80;;;;;;6306935;22;20006;-79
2023/05/07 00:56:39;;;;;;;9.77;6.78;;;18.90;90.00;;;;;;6307132;22;20057;-80
2023/05/07 00:59:06;;;;;;;7.47;6.60;;;18.90;90.00;;;;;;6307173;22;20094;-79
2023/05/07 01:01:32;;;;;;;10.13;7.43;;;18.90;90.10;;;;;;6307447;22;20068;-79
2023/05/07 01:03:57;;;;;;;8.32;6.97;;;18.90;90.10;;;;;;6307205;22;20023;-80
2023/05/07 01:06:25;;;;;;;8.68;7.45;;;18.90;90.10;;;;;;6309497;22;19995;-79
2023/05/07 01:08:52;;;;;;;8.85;7.72;;;18.90;90.10;;;;;;6308149;22;20003;-78
2023/05/07 01:11:22;;;;;;;9.35;7.78;;;18.90;90.20;;;;;;6307731;22;20000;-79
2023/05/07 01:13:48;;;;;;;9.13;7.70;;;18.80;90.20;;;;;;6309243;22;20003;-79
2023/05/07 01:16:14;;;;;;;13.27;8.70;;;18.80;90.30;;;;;;6308497;22;19995;-80
2023/05/07 01:18:40;;;;;;;9.35;8.10;;;18.80;90.40;;;;;;6308300;22;20012;-79
2023/05/07 01:21:07;;;;;;;9.35;8.25;;;18.80;90.50;;;;;;6309070;22;20003;-79
2023/05/07 01:23:34;;;;;;;10.68;9.55;;;18.80;90.40;;;;;;6309874;22;20003;-81
2023/05/07 01:25:59;;;;;;;11.35;9.38;;;18.80;90.50;;;;;;6307371;22;20034;-80
2023/05/07 01:28:25;;;;;;;11.82;9.73;;;18.70;90.50;;;;;;6307268;22;20337;-78
2023/05/07 01:30:56;;;;;;;13.40;10.02;;;18.70;90.70;;;;;;6307397;22;20068;-80
2023/05/07 01:33:22;;;;;;;15.10;10.38;;;18.60;90.80;;;;;;6310848;22;20008;-80
2023/05/07 01:35:52;;;;;;;12.55;10.45;;;18.60;90.80;;;;;;6314818;22;19999;-80
2023/05/07 01:38:21;;;;;;;13.30;9.55;;;18.60;90.80;;;;;;6307914;22;20060;-78
2023/05/07 01:40:47;;;;;;;11.88;9.63;;;18.60;90.90;;;;;;6306187;22;19995;-79
2023/05/07 01:43:13;;;;;;;10.55;9.45;;;18.60;91.00;;;;;;6306563;22;20329;-78
2023/05/07 01:45:40;;;;;;;10.65;9.48;;;18.50;91.10;;;;;;6279281;22;20000;-79
2023/05/07 01:48:10;;;;;;;10.55;9.25;;;18.50;91.10;;;;;;6306968;22;20011;-78
2023/05/07 01:50:37;;;;;;;9.77;8.18;;;18.60;91.20;;;;;;6306894;22;19999;-78
2023/05/07 01:53:03;;;;;;;10.70;8.50;;;18.50;91.10;;;;;;6306958;22;20003;-79
2023/05/07 01:55:28;;;;;;;10.32;8.40;;;18.50;91.20;;;;;;6307036;22;20328;-78
2023/05/07 01:57:54;;;;;;;10.52;9.18;;;18.50;91.30;;;;;;6306760;22;20419;-78
2023/05/07 02:00:20;;;;;;;12.23;9.93;;;18.50;91.20;;;;;;6308395;22;20044;-79
2023/05/07 02:02:46;;;;;;;11.63;8.70;;;18.50;91.20;;;;;;6307119;22;20006;-78
2023/05/07 02:05:11;;;;;;;10.00;8.95;;;18.50;91.10;;;;;;6306912;22;20006;-78
2023/05/07 02:07:37;;;;;;;8.43;7.10;;;18.50;90.90;;;;;;6306836;22;20027;-79
2023/05/07 02:10:03;;;;;;;12.15;8.98;;;18.50;91.00;;;;;;6279371;22;20006;-78
2023/05/07 02:12:29;;;;;;;11.82;9.05;;;18.60;90.90;;;;;;6306385;22;20003;-78
2023/05/07 02:14:55;;;;;;;13.27;9.40;;;18.50;90.70;;;;;;6306961;22;20007;-78
2023/05/07 02:17:20;;;;;;;11.07;9.23;;;18.50;90.90;;;;;;6311850;22;20004;-79
2023/05/07 02:19:46;;;;;;;10.88;9.13;;;18.50;91.00;;;;;;6308111;22;20080;-78
2023/05/07 02:22:11;;;;;;;12.00;9.50;;;18.40;91.00;;;;;;6306999;22;20061;-78
2023/05/07 02:24:37;;;;;;;11.27;9.35;;;18.40;91.00;;;;;;6307763;22;20074;-78
2023/05/07 02:27:03;;;;;;;10.57;8.93;;;18.30;91.00;;;;;;6307382;22;20360;-78
2023/05/07 02:29:29;;;;;;;10.65;7.57;;;18.30;91.00;;;;;;6308168;22;20011;-78
2023/05/07 02:31:55;;;;;;;9.88;6.57;;;18.20;90.80;;;;;;6279397;22;20031;-77
2023/05/07 02:34:21;;;;;;;11.32;6.30;;;18.10;90.60;;;;;;6306732;22;20010;-79
2023/05/07 02:36:47;;;;;;;10.23;6.00;;;18.10;90.40;;;;;;6307041;22;19999;-78
2023/05/07 02:39:13;;;;;;;10.73;5.95;;;18.10;90.10;;;;;;6306784;22;20034;-79
2023/05/07 02:41:39;;;;;;;7.40;5.50;;;18.10;89.70;;;;;;6306544;22;20003;-80
2023/05/07 02:44:05;;;;;;;9.25;5.57;;;18.00;89.40;;;;;;6307187;22;20007;-79
2023/05/07 02:46:31;;;;;;;8.40;5.28;;;18.10;89.00;;;;;;6308067;22;20049;-78
2023/05/07 02:48:56;;;;;;;7.95;5.15;;;18.00;88.60;;;;;;6306830;22;20004;-79
2023/05/07 02:51:22;;;;;;;10.98;5.53;;;18.00;88.60;;;;;;6306141;22;20117;-79
2023/05/07 02:53:48;;;;;;;10.45;5.85;;;18.00;87.10;;;;;;6306570;22;20003;-78
2023/05/07 02:56:14;;;;;;;8.82;5.57;;;17.90;86.00;;;;;;6306153;22;20006;-78
2023/05/07 02:58:41;;;;;;;11.05;6.03;;;17.90;86.10;;;;;;6305974;22;20018;-80
2023/05/07 03:01:08;;;;;;;9.93;6.30;;;17.80;85.80;;;;;;6305760;22;20503;-79
2023/05/07 03:03:34;;;;;;;9.30;6.57;;;17.80;85.40;;;;;;6305843;22;20171;-78
2023/05/07 03:05:59;;;;;;;11.70;6.72;;;17.70;85.30;;;;;;6306294;22;20011;-79
2023/05/07 03:08:25;;;;;;;14.02;6.55;;;17.70;84.80;;;;;;6306318;22;20007;-79
2023/05/07 03:10:51;;;;;;;9.75;6.40;;;17.70;84.40;;;;;;6308417;22;20067;-79
2023/05/07 03:13:17;;;;;;;8.25;5.65;;;17.60;84.20;;;;;;6283269;22;20003;-79
2023/05/07 03:15:42;;;;;;;9.73;5.95;;;17.60;84.20;;;;;;6312593;22;20178;-80
2023/05/07 03:18:08;;;;;;;8.75;5.68;;;17.60;83.80;;;;;;6308783;22;20064;-77
2023/05/07 03:20:34;;;;;;;10.68;5.97;;;17.50;84.10;;;;;;6308414;22;20010;-78
2023/05/07 03:23:00;;;;;;;9.45;5.38;;;17.60;83.60;;;;;;6309032;22;20003;-79
2023/05/07 03:25:26;;;;;;;7.07;5.10;;;17.50;83.20;;;;;;6309299;22;19996;-78
2023/05/07 03:27:51;;;;;;;7.57;5.00;;;17.50;82.90;;;;;;6308653;22;20350;-79
2023/05/07 11:55:52;;;;;;;7.80;2.47;;;26.10;61.30;;;;;;6332336;22;20337;-82
2023/05/07 11:58:22;;;;;;;7.03;2.40;;;26.20;61.60;;;;;;6305541;22;20344;-79
2023/05/07 12:00:49;;;;;;;6.55;2.50;;;26.20;61.90;;;;;;6307438;22;20468;-79
2023/05/07 12:03:15;;;;;;;4.53;2.28;;;26.20;61.30;;;;;;6279389;22;20017;-80
2023/05/07 12:05:41;;;;;;;6.47;2.17;;;26.20;61.00;;;;;;6307043;22;20417;-78
2023/05/07 12:08:07;;;;;;;3.15;1.85;;;26.20;60.60;;;;;;6307434;22;20082;-77
2023/05/07 12:10:33;;;;;;;4.13;2.60;;;26.20;61.20;;;;;;6306665;22;20090;-78
2023/05/07 12:12:59;;;;;;;6.35;2.20;;;26.20;60.90;;;;;;6279465;22;20449;-78
2023/05/07 12:15:24;;;;;;;3.20;2.20;;;26.20;60.80;;;;;;6306934;22;20314;-77
2023/05/07 12:17:52;;;;;;;4.15;2.30;;;26.20;60.90;;;;;;6307369;22;20011;-77
2023/05/07 12:20:18;;;;;;;2.33;1.73;;;26.20;60.50;;;;;;6307536;22;20382;-77
2023/05/07 12:22:44;;;;;;;5.03;2.40;;;26.20;60.30;;;;;;6307538;22;20023;-77
2023/05/07 12:25:10;;;;;;;4.95;2.92;;;26.20;60.20;;;;;;6307842;22;20310;-80
2023/05/07 12:27:39;;;;;;;6.32;2.45;;;26.30;61.20;;;;;;6308176;22;20038;-80
2023/05/07 12:30:05;;;;;;;5.68;2.55;;;26.40;61.40;;;;;;6307687;22;20003;-76
2023/05/07 12:32:36;;;;;;;4.28;2.17;;;26.40;60.30;;;;;;6307007;22;20011;-74
2023/05/07 12:35:01;;;;;;;6.25;2.70;;;26.30;60.10;;;;;;6305495;22;20007;-74
2023/05/07 12:37:27;;;;;;;8.73;2.53;;;26.30;60.10;;;;;;6306322;22;20377;-74
2023/05/07 12:40:06;;;;;;;5.63;2.70;;;26.30;60.60;;;;;;6306613;22;20010;-76
2023/05/07 12:42:35;;;;;;;6.05;2.20;;;26.30;60.50;;;;;;6306879;22;20010;-75
2023/05/07 12:45:08;;;;;;;5.15;2.38;;;26.30;60.40;;;;;;6306552;22;20050;-75
2023/05/07 12:47:34;;;;;;;4.90;2.53;;;26.30;60.40;;;;;;6306727;22;20042;-74
2023/05/07 12:50:00;;;;;;;6.63;2.20;;;26.30;60.00;;;;;;6307112;22;19999;-75
2023/05/07 12:52:26;;;;;;;7.32;2.90;;;26.30;60.40;;;;;;6306679;22;20270;-75
2023/05/07 12:54:51;;;;;;;4.18;2.38;;;26.30;61.00;;;;;;6307355;22;20006;-75
2023/05/07 12:57:20;;;;;;;10.40;2.80;;;26.40;60.80;;;;;;6327734;22;20062;-75
2023/05/07 12:59:46;;;;;;;8.55;2.50;;;26.40;61.10;;;;;;6337828;22;20080;-76
2023/05/07 13:02:12;;;;;;;4.95;2.63;;;26.50;60.90;;;;;;6338573;22;19999;-75
2023/05/07 13:04:37;;;;;;;5.63;2.33;;;26.50;60.50;;;;;;6338234;22;20006;-74
2023/05/07 13:07:03;;;;;;;5.32;2.20;;;26.50;60.30;;;;;;6338506;22;20371;-76
2023/05/07 13:09:29;;;;;;;4.53;2.50;;;26.50;60.70;;;;;;6338273;22;20069;-77
2023/05/07 13:11:55;;;;;;;5.60;2.03;;;26.50;60.60;;;;;;6338710;22;20011;-78
2023/05/07 13:14:20;;;;;;;3.95;1.95;;;26.50;60.20;;;;;;6337844;22;20412;-76
2023/05/07 13:16:49;;;;;;;5.53;2.38;;;26.50;60.30;;;;;;6337565;22;20011;-78
2023/05/07 13:19:15;;;;;;;6.90;2.42;;;26.50;60.10;;;;;;6338137;22;20011;-80
2023/05/07 13:21:40;;;;;;;12.43;4.28;;;26.40;60.60;;;;;;6338572;22;20055;-77
2023/05/07 13:24:07;;;;;;;5.57;2.47;;;26.50;61.40;;;;;;6310471;22;20378;-77
2023/05/07 13:26:32;;;;;;;3.30;2.10;;;26.60;59.90;;;;;;6338533;22;20010;-77
2023/05/07 13:28:58;;;;;;;5.95;2.50;;;26.60;59.30;;;;;;6338624;22;19999;-76
2023/05/07 13:31:24;;;;;;;7.38;2.60;;;26.60;58.90;;;;;;6338409;22;20045;-76
2023/05/07 13:33:50;;;;;;;9.20;3.75;;;26.60;59.10;;;;;;6338175;22;20094;-77
2023/05/07 13:36:16;;;;;;;10.30;2.85;;;26.70;59.60;;;;;;6338047;22;20034;-83
2023/05/07 13:38:41;;;;;;;7.88;2.70;;;26.70;59.50;;;;;;6338308;22;20497;-80
2023/05/07 13:41:07;;;;;;;13.15;3.97;;;26.60;59.70;;;;;;6338527;22;20005;-80
2023/05/07 13:43:33;;;;;;;8.32;3.65;;;26.70;60.20;;;;;;6338513;22;20079;-80
2023/05/07 13:46:00;;;;;;;3.50;1.75;;;26.70;60.30;;;;;;6338568;22;20073;-80
2023/05/07 13:48:25;;;;;;;4.18;1.92;;;26.80;59.80;;;;;;6338276;22;20009;-80
2023/05/07 13:50:51;;;;;;;3.45;1.80;;;26.70;59.60;;;;;;6340021;22;20031;-79
2023/05/07 13:53:18;;;;;;;5.03;1.95;;;26.60;59.30;;;;;;6339568;22;20032;-80
2023/05/07 13:55:44;;;;;;;9.18;3.50;;;26.60;59.60;;;;;;6338464;22;20333;-79
2023/05/07 13:58:10;;;;;;;8.07;3.28;;;26.60;60.10;;;;;;6338533;22;20017;-80
2023/05/07 14:00:36;;;;;;;7.97;2.50;;;26.60;60.30;;;;;;6338296;22;19995;-81
2023/05/07 14:03:04;;;;;;;5.65;2.72;;;26.70;60.10;;;;;;6338519;22;20024;-79
2023/05/07 14:05:29;;;;;;;7.93;2.70;;;26.60;59.60;;;;;;6338452;22;19995;-78
2023/05/07 14:07:57;;;;;;;5.75;2.17;;;26.60;59.20;;;;;;6340295;22;20010;-78
2023/05/07 14:10:22;;;;;;;10.15;3.28;;;26.60;59.70;;;;;;6338176;22;19999;-75
2023/05/07 14:12:48;;;;;;;4.88;1.95;;;26.60;59.30;;;;;;6338019;22;20489;-76
2023/05/07 14:15:14;;;;;;;4.63;1.95;;;26.60;59.90;;;;;;6310139;22;20123;-77
2023/05/07 14:17:40;;;;;;;5.30;2.38;;;26.50;59.80;;;;;;6338273;22;20014;-78
2023/05/07 14:20:06;;;;;;;9.25;3.53;;;26.40;60.30;;;;;;6338012;22;19999;-77
2023/05/07 14:22:32;;;;;;;6.72;2.58;;;26.40;60.60;;;;;;6337954;22;20072;-76
2023/05/07 14:24:58;;;;;;;8.02;2.70;;;26.40;60.90;;;;;;6337807;22;20432;-77
2023/05/07 14:27:24;;;;;;;3.75;2.22;;;26.40;61.10;;;;;;6338362;22;20074;-77
2023/05/07 14:29:50;;;;;;;10.30;3.38;;;26.40;60.70;;;;;;6337722;22;20367;-77
2023/05/07 14:32:19;;;;;;;5.38;2.47;;;26.50;60.80;;;;;;6337939;22;20459;-78
2023/05/07 14:34:46;;;;;;;4.85;2.67;;;26.50;61.00;;;;;;6337767;22;19999;-75
2023/05/07 14:37:12;;;;;;;5.78;2.30;;;26.50;60.90;;;;;;6337794;22;20375;-76
2023/05/07 14:39:38;;;;;;;4.63;2.13;;;26.50;60.90;;;;;;6337824;22;20007;-77
2023/05/07 14:42:04;;;;;;;3.83;2.20;;;26.40;60.90;;;;;;6337781;22;20337;-76
2023/05/07 14:44:31;;;;;;;3.30;1.95;;;26.50;60.90;;;;;;6337550;22;20006;-77
2023/05/07 14:46:56;;;;;;;3.60;1.92;;;26.50;61.00;;;;;;6337709;22;20011;-76
2023/05/07 14:49:22;;;;;;;3.35;1.90;;;26.40;61.00;;;;;;6337674;22;20026;-77
2023/05/07 14:51:48;;;;;;;3.08;1.90;;;26.40;60.50;;;;;;6337731;22;20078;-76
2023/05/07 14:54:14;;;;;;;3.58;1.80;;;26.40;60.50;;;;;;6337622;22;20011;-77
2023/05/07 14:56:40;;;;;;;8.45;2.03;;;26.30;60.70;;;;;;6337485;22;20326;-76
2023/05/07 14:59:07;;;;;;;4.30;1.90;;;26.40;60.90;;;;;;6337588;22;20007;-78
2023/05/07 15:01:35;;;;;;;3.75;1.83;;;26.30;60.40;;;;;;6337752;22;20433;-77
2023/05/07 15:04:01;;;;;;;4.13;2.13;;;26.30;60.80;;;;;;6309898;22;20010;-77
2023/05/07 15:06:26;;;;;;;2.70;1.77;;;26.30;60.70;;;;;;6339743;22;19999;-78
2023/05/07 15:08:52;;;;;;;3.10;1.90;;;26.30;60.20;;;;;;6339565;22;20007;-77
2023/05/07 15:11:18;;;;;;;3.60;1.98;;;26.20;60.20;;;;;;6339748;22;19999;-78
2023/05/07 15:13:43;;;;;;;6.05;2.00;;;26.20;60.50;;;;;;6339441;22;19999;-76
2023/05/07 15:16:09;;;;;;;4.05;2.10;;;26.20;60.40;;;;;;6339500;22;20057;-77
2023/05/07 15:18:35;;;;;;;5.18;2.35;;;26.20;60.30;;;;;;6339413;22;20015;-77
2023/05/07 15:21:01;;;;;;;5.13;2.28;;;26.30;60.40;;;;;;6339598;22;19999;-77
2023/05/07 15:23:26;;;;;;;4.38;2.15;;;26.30;60.40;;;;;;6339247;22;20015;-77
2023/05/07 15:25:53;;;;;;;4.07;2.45;;;26.30;60.20;;;;;;6340021;22;19998;-77
2023/05/07 15:28:19;;;;;;;5.72;2.45;;;26.30;60.60;;;;;;6339881;22;20074;-78
2023/05/07 15:30:44;;;;;;;3.28;1.80;;;26.20;59.70;;;;;;6339597;22;20003;-77
2023/05/07 15:33:10;;;;;;;3.25;2.08;;;26.20;60.00;;;;;;6339624;22;20061;-77
2023/05/07 15:35:36;;;;;;;5.88;2.03;;;26.20;60.00;;;;;;6339827;22;20023;-78
2023/05/07 15:38:02;;;;;;;3.97;1.98;;;26.10;59.90;;;;;;6340620;22;20452;-77
2023/05/07 15:40:28;;;;;;;4.13;2.17;;;26.10;60.00;;;;;;6339572;22;20440;-78
2023/05/07 15:42:55;;;;;;;4.38;2.05;;;26.10;59.60;;;;;;6339054;22;20140;-78
2023/05/07 15:45:22;;;;;;;2.72;1.65;;;26.00;59.50;;;;;;6339738;22;20371;-78
2023/05/07 15:47:47;;;;;;;3.40;1.70;;;26.00;59.20;;;;;;6338828;22;20002;-77
2023/05/07 15:50:13;;;;;;;3.60;1.80;;;25.90;58.70;;;;;;6311112;22;20010;-78
2023/05/07 15:52:40;;;;;;;4.05;2.05;;;25.90;58.70;;;;;;6338702;22;20022;-78
2023/05/07 15:55:08;;;;;;;3.15;1.80;;;25.80;58.90;;;;;;6338833;22;20094;-78
2023/05/07 15:57:33;;;;;;;4.07;1.90;;;25.70;58.70;;;;;;6339101;22;20057;-78
2023/05/07 15:59:59;;;;;;;4.95;2.08;;;25.70;59.20;;;;;;6339574;22;20007;-79
2023/05/07 16:02:25;;;;;;;3.45;1.58;;;25.70;58.70;;;;;;6339415;22;20007;-77
2023/05/07 16:04:51;;;;;;;4.15;1.60;;;25.70;58.40;;;;;;6339894;22;20085;-78
2023/05/07 16:07:18;;;;;;;4.30;1.60;;;25.70;58.00;;;;;;6339700;22;20052;-78
2023/05/07 16:09:44;;;;;;;5.47;1.60;;;25.60;57.80;;;;;;6339589;22;20380;-79
2023/05/07 16:12:10;;;;;;;3.38;1.67;;;25.60;57.30;;;;;;6339448;22;20432;-78
2023/05/07 16:14:36;;;;;;;3.33;1.33;;;25.50;57.00;;;;;;6339541;22;20026;-78
2023/05/07 16:17:02;;;;;;;3.10;1.80;;;25.50;56.70;;;;;;6338626;22;20010;-79
2023/05/07 16:19:28;;;;;;;3.13;1.65;;;25.50;56.40;;;;;;6338974;22;20014;-79
2023/05/07 16:21:54;;;;;;;5.75;1.60;;;25.50;56.40;;;;;;6339325;22;20003;-78
2023/05/07 16:24:19;;;;;;;4.20;2.00;;;25.40;56.80;;;;;;6339140;22;20432;-78
2023/05/07 16:26:45;;;;;;;2.97;1.38;;;25.40;56.40;;;;;;6338988;22;20002;-78
2023/05/07 16:29:11;;;;;;;2.25;1.50;;;25.40;56.20;;;;;;6339394;22;20052;-78
2023/05/07 16:31:36;;;;;;;3.17;2.00;;;25.30;56.30;;;;;;6339209;22;20034;-79
2023/05/07 16:34:03;;;;;;;4.22;2.15;;;25.30;55.70;;;;;;6311508;22;20394;-78
2023/05/07 16:36:28;;;;;;;4.28;1.80;;;25.20;55.50;;;;;;6339103;22;20033;-78
2023/05/07 16:38:54;;;;;;;4.78;2.10;;;25.10;55.40;;;;;;6339612;22;20325;-80
2023/05/07 16:41:21;;;;;;;5.47;2.35;;;25.00;55.10;;;;;;6339779;22;20003;-80
2023/05/07 16:43:46;;;;;;;4.53;1.83;;;24.80;55.50;;;;;;6339004;22;19998;-79
2023/05/07 16:46:13;;;;;;;5.13;1.70;;;24.70;56.30;;;;;;6338668;22;20005;-78
2023/05/07 16:48:38;;;;;;;3.15;1.60;;;24.60;56.60;;;;;;6311362;22;20486;-78
2023/05/07 16:51:06;;;;;;;3.60;1.90;;;24.40;56.50;;;;;;6338444;22;20002;-78
2023/05/07 16:53:31;;;;;;;3.90;1.60;;;24.30;56.30;;;;;;6338425;22;19999;-79
2023/05/07 16:55:57;;;;;;;4.65;1.63;;;24.20;56.40;;;;;;6338585;22;20305;-78
2023/05/07 16:58:23;;;;;;;7.75;2.67;;;24.20;56.30;;;;;;6338317;22;20086;-80
2023/05/07 17:00:49;;;;;;;5.88;2.20;;;24.20;56.30;;;;;;6338666;22;20001;-78
2023/05/07 17:03:15;;;;;;;2.78;1.77;;;24.10;55.90;;;;;;6338986;22;20014;-79
2023/05/07 17:05:40;;;;;;;4.20;1.85;;;24.10;55.90;;;;;;6311374;22;19995;-78
2023/05/07 17:08:06;;;;;;;5.55;2.08;;;24.10;56.30;;;;;;6311239;22;20014;-79
2023/05/07 17:10:32;;;;;;;3.22;1.70;;;24.00;56.00;;;;;;6339872;22;20052;-78
2023/05/07 17:12:57;;;;;;;5.28;1.98;;;24.00;56.20;;;;;;6339300;22;20011;-76
2023/05/07 17:15:23;;;;;;;4.18;2.28;;;23.90;56.00;;;;;;6311391;22;20033;-78
2023/05/07 17:17:49;;;;;;;3.22;1.70;;;23.70;56.50;;;;;;6338489;22;20114;-79
2023/05/07 17:20:15;;;;;;;3.17;1.55;;;23.70;56.70;;;;;;6311171;22;20007;-80
2023/05/07 17:22:41;;;;;;;2.78;1.73;;;23.70;56.90;;;;;;6339424;22;20009;-79
2023/05/07 17:25:07;;;;;;;7.72;3.60;;;23.60;56.90;;;;;;6339326;22;20003;-79
2023/05/07 17:27:33;;;;;;;9.63;6.85;;;23.50;56.70;;;;;;6338360;22;20441;-79
2023/05/07 17:29:59;;;;;;;5.50;2.78;;;23.50;57.10;;;;;;6338663;22;20065;-80
2023/05/07 17:32:26;;;;;;;3.70;1.92;;;23.40;57.20;;;;;;6338849;22;19995;-79
2023/05/07 17:34:52;;;;;;;5.43;2.03;;;23.40;57.00;;;;;;6340106;22;20006;-78
2023/05/07 17:37:17;;;;;;;4.18;2.10;;;23.30;57.10;;;;;;6341338;22;20025;-79
2023/05/07 17:39:43;;;;;;;3.40;1.60;;;23.30;57.40;;;;;;6339718;22;20007;-78
2023/05/07 17:42:09;;;;;;;4.18;1.70;;;23.30;57.50;;;;;;6339196;22;20021;-79
2023/05/07 17:44:34;;;;;;;3.70;1.92;;;23.30;57.50;;;;;;6338882;22;20011;-78
2023/05/07 17:47:00;;;;;;;3.65;1.60;;;23.30;57.60;;;;;;6338740;22;20002;-80
2023/05/07 17:49:26;;;;;;;5.35;1.88;;;23.40;58.60;;;;;;6338704;22;20003;-80
2023/05/07 17:51:52;;;;;;;3.17;1.88;;;23.30;58.20;;;;;;6339244;22;20006;-79
2023/05/07 17:54:18;;;;;;;4.50;1.92;;;23.30;58.70;;;;;;6339290;22;20003;-77
2023/05/07 21:22:45;;;;;;;8.20;5.40;;;21.10;67.10;;;;;;6331337;22;20034;-79
2023/05/07 21:25:10;;;;;;;7.28;4.82;;;21.10;66.80;;;;;;6303279;22;20103;-81
2023/05/07 21:27:36;;;;;;;12.60;6.10;;;21.10;67.20;;;;;;6304858;22;20385;-81
2023/05/07 21:30:03;;;;;;;12.82;6.93;;;21.00;67.50;;;;;;6305508;22;20077;-81
2023/05/07 21:32:30;;;;;;;9.82;6.18;;;21.00;67.60;;;;;;6307500;22;20383;-82
2023/05/07 21:34:55;;;;;;;9.85;5.95;;;21.00;68.30;;;;;;6305411;22;20011;-80
2023/05/07 21:37:21;;;;;;;10.50;5.97;;;21.00;68.50;;;;;;6306406;22;20003;-79
2023/05/07 21:39:47;;;;;;;10.35;6.15;;;21.00;68.60;;;;;;6306577;22;20345;-80
2023/05/07 21:42:12;;;;;;;9.23;5.80;;;20.90;68.60;;;;;;6306923;22;20314;-80
2023/05/07 21:44:38;;;;;;;9.63;5.43;;;20.80;68.60;;;;;;6279224;22;20452;-77
2023/05/07 21:47:04;;;;;;;11.30;6.28;;;20.80;68.70;;;;;;6306888;22;20486;-80
2023/05/07 21:49:29;;;;;;;11.73;5.88;;;20.80;68.80;;;;;;6307035;22;19995;-81
2023/05/07 21:51:55;;;;;;;11.10;5.57;;;20.90;69.00;;;;;;6306895;22;20007;-80
2023/05/07 21:54:21;;;;;;;10.82;5.88;;;20.90;68.80;;;;;;6307371;22;19999;-82
2023/05/07 21:56:47;;;;;;;9.90;5.22;;;21.00;68.90;;;;;;6307096;22;20061;-81
2023/05/07 21:59:12;;;;;;;8.48;4.70;;;21.00;68.70;;;;;;6306810;22;20088;-81
2023/05/07 22:01:38;;;;;;;10.23;5.13;;;21.00;68.70;;;;;;6306715;22;20019;-81
2023/05/07 22:04:04;;;;;;;9.65;5.22;;;21.00;68.70;;;;;;6306655;22;20057;-81
2023/05/07 22:06:30;;;;;;;12.45;5.88;;;21.00;68.70;;;;;;6304894;22;20003;-81
2023/05/07 22:08:55;;;;;;;8.90;5.50;;;21.10;68.60;;;;;;6306979;22;20095;-80
2023/05/07 22:11:21;;;;;;;9.88;4.50;;;21.10;68.40;;;;;;6306528;22;20003;-79
2023/05/07 22:13:47;;;;;;;7.03;4.10;;;21.00;68.00;;;;;;6306018;22;20006;-81
2023/05/07 22:16:12;;;;;;;5.55;3.20;;;21.00;67.10;;;;;;6306217;22;20000;-80
2023/05/07 22:18:38;;;;;;;7.55;4.00;;;21.00;66.50;;;;;;6306794;22;20344;-81
2023/05/07 22:21:04;;;;;;;10.63;4.13;;;20.90;66.20;;;;;;6307292;22;20328;-81
2023/05/07 22:23:29;;;;;;;6.80;3.78;;;20.80;65.70;;;;;;6307421;22;20026;-79
2023/05/07 22:25:55;;;;;;;8.27;3.60;;;20.80;65.40;;;;;;6306916;22;19999;-77
2023/05/07 22:28:21;;;;;;;7.65;3.35;;;20.70;65.10;;;;;;6306855;22;20000;-79
2023/05/07 22:30:46;;;;;;;10.43;4.00;;;20.70;65.00;;;;;;6306289;22;20019;-79
2023/05/07 22:33:12;;;;;;;7.43;4.13;;;20.70;65.00;;;;;;6306868;22;19999;-80
2023/05/07 22:35:38;;;;;;;8.68;4.10;;;20.70;64.90;;;;;;6306769;22;20006;-78
2023/05/07 22:38:04;;;;;;;7.85;3.78;;;20.70;65.00;;;;;;6306457;22;20000;-80
2023/05/07 22:40:29;;;;;;;12.65;3.92;;;20.70;65.20;;;;;;6306670;22;20003;-76
2023/05/07 22:42:55;;;;;;;6.95;3.85;;;20.70;65.10;;;;;;6306453;22;20248;-80
2023/05/07 22:45:21;;;;;;;6.88;4.00;;;20.60;65.10;;;;;;6306654;22;20007;-80
2023/05/07 22:47:47;;;;;;;6.20;3.97;;;20.70;65.40;;;;;;6306583;22;20132;-80
2023/05/07 22:50:12;;;;;;;6.13;4.10;;;20.60;65.20;;;;;;6306328;22;20007;-79
2023/05/07 22:52:38;;;;;;;8.38;4.22;;;20.60;65.30;;;;;;6306825;22;20037;-80
2023/05/07 22:55:04;;;;;;;7.35;3.58;;;20.60;65.40;;;;;;6306679;22;20003;-79
2023/05/07 22:57:30;;;;;;;7.18;4.43;;;20.60;66.00;;;;;;6306469;22;20065;-80
2023/05/07 22:59:56;;;;;;;8.77;4.28;;;20.60;66.20;;;;;;6306446;22;20412;-80
2023/05/07 23:02:22;;;;;;;8.05;4.45;;;20.60;66.60;;;;;;6260876;22;20052;-80
2023/05/07 23:04:47;;;;;;;8.18;4.22;;;20.50;67.10;;;;;;6306462;22;19995;-80
2023/05/07 23:07:13;;;;;;;7.70;4.50;;;20.50;67.40;;;;;;6306422;22;20007;-80
2023/05/07 23:09:39;;;;;;;8.70;4.55;;;20.50;67.50;;;;;;6306355;22;20000;-79
2023/05/07 23:12:05;;;;;;;7.13;4.22;;;20.50;68.30;;;;;;6306576;22;20007;-80
2023/05/07 23:14:30;;;;;;;51.75;37.10;;;20.50;68.20;;;;;;6306266;22;20490;-79
2023/05/07 23:16:56;;;;;;;9.32;6.05;;;20.50;68.30;;;;;;6306478;22;20110;-79
2023/05/07 23:19:22;;;;;;;8.65;4.22;;;20.50;68.50;;;;;;6306540;22;20336;-79
2023/05/07 23:21:48;;;;;;;6.10;3.95;;;20.50;68.50;;;;;;6278934;22;20336;-79
2023/05/07 23:24:13;;;;;;;8.27;4.30;;;20.50;68.60;;;;;;6306189;22;20003;-80
2023/05/07 23:26:39;;;;;;;8.40;4.43;;;20.50;68.70;;;;;;6309063;22;20030;-80
2023/05/07 23:29:05;;;;;;;7.45;4.53;;;20.50;69.10;;;;;;6308653;22;19999;-80
2023/05/07 23:31:30;;;;;;;8.25;4.63;;;20.50;69.20;;;;;;6308527;22;19996;-80
2023/05/07 23:33:56;;;;;;;8.23;4.95;;;20.40;69.40;;;;;;6308128;22;20074;-80
2023/05/07 23:36:22;;;;;;;6.55;4.75;;;20.30;69.60;;;;;;6308456;22;20070;-79
2023/05/07 23:38:47;;;;;;;8.82;4.40;;;20.30;69.70;;;;;;6308428;22;20065;-79
2023/05/07 23:41:13;;;;;;;8.50;4.50;;;20.20;70.10;;;;;;6308487;22;20010;-79
2023/05/07 23:43:39;;;;;;;7.72;4.15;;;20.20;70.40;;;;;;6308052;22;20306;-80
2023/05/07 23:46:05;;;;;;;9.63;5.03;;;20.10;70.30;;;;;;6308397;22;19995;-80
2023/05/07 23:48:30;;;;;;;8.98;4.38;;;20.10;70.70;;;;;;6307962;22;19995;-79
2023/05/07 23:50:56;;;;;;;11.48;4.25;;;20.20;70.90;;;;;;6308130;22;20015;-79
2023/05/07 23:53:22;;;;;;;6.50;4.40;;;20.20;71.10;;;;;;6307966;22;20000;-78
2023/05/07 23:55:47;;;;;;;7.82;4.70;;;20.10;71.20;;;;;;6307947;22;19999;-79
2023/05/07 23:58:13;;;;;;;8.85;4.43;;;20.10;71.50;;;;;;6307805;22;20038;-80
